createdAt,value
2022-08-05T00:01:28.625Z,2.78
2022-08-05T00:04:33.135Z,2.80
2022-08-05T00:08:00.093Z,2.88
2022-08-05T00:11:04.085Z,2.80
2022-08-05T00:14:12.020Z,2.50
2022-08-05T00:17:20.861Z,2.70
2022-08-05T00:20:28.952Z,2.60
2022-08-05T00:23:46.579Z,3.00
2022-08-05T00:26:57.044Z,2.40
2022-08-05T00:30:03.168Z,2.42
2022-08-05T00:34:41.893Z,2.60
2022-08-05T00:37:13.280Z,2.50
2022-08-05T00:39:58.613Z,2.50
2022-08-05T00:43:07.576Z,2.42
2022-08-05T00:46:14.664Z,2.78
2022-08-05T00:49:20.140Z,2.38
2022-08-05T00:52:28.233Z,2.60
2022-08-05T00:55:42.365Z,2.60
2022-08-05T00:58:46.885Z,2.40
2022-08-05T01:01:54.751Z,2.50
2022-08-05T01:04:59.259Z,2.60
2022-08-05T01:08:40.389Z,2.65
2022-08-05T01:11:37.207Z,2.70
2022-08-05T01:17:56.763Z,2.65
2022-08-05T01:21:12.420Z,2.70
2022-08-05T01:24:52.490Z,2.42
2022-08-05T01:28:16.241Z,2.67
2022-08-05T01:31:27.777Z,2.67
2022-08-05T01:34:38.011Z,2.50
2022-08-05T01:37:50.368Z,2.55
2022-08-05T01:41:00.014Z,2.65
2022-08-05T01:44:09.624Z,2.97
2022-08-05T01:47:18.835Z,2.58
2022-08-05T01:50:29.986Z,2.63
2022-08-05T01:53:57.036Z,2.55
2022-08-05T01:58:29.708Z,2.67
2022-08-05T02:00:30.533Z,2.78
2022-08-05T02:03:38.996Z,2.70
2022-08-05T02:06:45.150Z,2.97
2022-08-05T02:09:50.385Z,2.70
2022-08-05T02:13:01.329Z,2.60
2022-08-05T02:16:27.574Z,3.00
2022-08-05T02:19:35.636Z,2.80
2022-08-05T02:22:58.314Z,2.90
2022-08-05T02:26:07.336Z,2.70
2022-08-05T02:29:21.401Z,2.70
2022-08-05T02:32:31.849Z,3.00
2022-08-05T02:35:44.890Z,3.10
2022-08-05T02:39:02.827Z,2.88
2022-08-05T02:42:08.146Z,2.80
2022-08-05T02:45:14.266Z,2.72
2022-08-05T02:48:29.455Z,2.80
2022-08-05T02:52:03.393Z,2.67
2022-08-05T02:55:05.417Z,2.80
2022-08-05T02:58:15.909Z,2.73
2022-08-05T03:01:24.405Z,2.90
2022-08-05T03:04:29.771Z,2.97
2022-08-05T03:08:00.372Z,2.45
2022-08-05T03:11:53.518Z,2.70
2022-08-05T03:14:22.373Z,2.92
2022-08-05T03:17:26.957Z,2.70
2022-08-05T03:20:31.424Z,2.70
2022-08-05T03:23:43.152Z,2.72
2022-08-05T03:26:49.642Z,2.80
2022-08-05T03:30:07.770Z,2.67
2022-08-05T03:33:13.799Z,3.05
2022-08-05T03:36:29.813Z,2.92
2022-08-05T03:39:47.148Z,2.97
2022-08-05T03:43:16.056Z,2.92
2022-08-05T03:46:24.020Z,2.70
2022-08-05T03:49:51.282Z,2.92
2022-08-05T03:55:00.073Z,2.92
2022-08-05T03:56:42.252Z,2.80
2022-08-05T04:00:09.995Z,2.70
2022-08-05T04:03:28.251Z,2.83
2022-08-05T04:06:34.606Z,2.90
2022-08-05T04:09:38.696Z,2.95
2022-08-05T04:12:59.046Z,2.72
2022-08-05T04:16:04.892Z,2.63
2022-08-05T04:19:12.791Z,2.90
2022-08-05T04:22:20.618Z,2.72
2022-08-05T04:25:56.966Z,2.95
2022-08-05T04:28:51.977Z,3.20
2022-08-05T04:31:56.880Z,2.70
2022-08-05T04:35:01.166Z,2.83
2022-08-05T04:38:06.588Z,3.20
2022-08-05T04:41:11.294Z,2.90
2022-08-05T04:44:16.206Z,2.92
2022-08-05T04:47:38.620Z,2.85
2022-08-05T04:51:01.637Z,2.97
2022-08-05T04:54:14.884Z,3.00
2022-08-05T04:57:18.913Z,3.00
2022-08-05T05:00:23.272Z,3.13
2022-08-05T05:03:28.043Z,2.88
2022-08-05T05:06:49.386Z,3.15
2022-08-05T05:10:05.299Z,2.70
2022-08-05T05:13:12.059Z,2.75
2022-08-05T05:16:17.324Z,2.70
2022-08-05T05:19:27.506Z,2.83
2022-08-05T05:22:44.172Z,2.78
2022-08-05T05:25:48.299Z,2.92
2022-08-05T05:28:52.277Z,3.13
2022-08-05T05:31:56.983Z,2.70
2022-08-05T05:35:00.863Z,3.63
2022-08-05T05:38:09.466Z,3.13
2022-08-05T05:41:18.500Z,3.47
2022-08-05T05:44:36.689Z,3.33
2022-08-05T05:48:06.443Z,3.60
2022-08-05T05:51:14.918Z,3.30
2022-08-05T05:54:20.313Z,3.00
2022-08-05T05:57:24.744Z,3.42
2022-08-05T06:00:46.613Z,3.72
2022-08-05T06:04:01.728Z,3.47
2022-08-05T06:07:07.786Z,2.90
2022-08-05T06:10:15.134Z,3.35
2022-08-05T06:13:19.801Z,3.45
2022-08-05T06:16:32.754Z,3.17
2022-08-05T06:19:40.937Z,3.28
2022-08-05T06:22:49.396Z,3.38
2022-08-05T06:26:13.255Z,3.00
2022-08-05T06:29:25.423Z,2.72
2022-08-05T06:32:44.515Z,3.10
2022-08-05T06:36:03.485Z,2.85
2022-08-05T06:39:12.421Z,3.67
2022-08-05T06:42:17.395Z,2.90
2022-08-05T06:45:44.038Z,2.90
2022-08-05T06:48:56.813Z,3.42
2022-08-05T06:52:03.717Z,3.20
2022-08-05T06:55:08.242Z,3.10
2022-08-05T06:58:20.105Z,3.10
2022-08-05T07:01:34.433Z,3.10
2022-08-05T07:04:38.604Z,3.58
2022-08-05T07:07:45.190Z,3.28
2022-08-05T07:10:52.865Z,3.10
2022-08-05T07:14:28.890Z,3.30
2022-08-05T07:18:00.090Z,3.40
2022-08-05T07:20:58.915Z,3.40
2022-08-05T07:24:11.383Z,3.13
2022-08-05T07:27:15.460Z,3.47
2022-08-05T07:30:25.542Z,3.25
2022-08-05T07:33:36.707Z,3.50
2022-08-05T07:36:42.117Z,3.22
2022-08-05T07:40:04.215Z,2.85
2022-08-05T07:43:20.371Z,3.25
2022-08-05T07:46:27.454Z,2.97
2022-08-05T07:49:34.222Z,2.80
2022-08-05T07:52:48.069Z,3.60
2022-08-05T07:56:06.395Z,2.72
2022-08-05T07:59:16.377Z,2.70
2022-08-05T08:02:26.495Z,3.15
2022-08-05T08:05:39.496Z,3.13
2022-08-05T08:08:44.376Z,3.00
2022-08-05T08:11:58.920Z,3.47
2022-08-05T08:15:14.136Z,3.10
2022-08-05T08:18:20.827Z,3.20
2022-08-05T08:21:24.786Z,2.70
2022-08-05T08:24:51.449Z,3.03
2022-08-05T08:27:55.164Z,2.90
2022-08-05T08:30:59.614Z,3.00
2022-08-05T08:34:04.992Z,2.75
2022-08-05T08:37:09.508Z,3.58
2022-08-05T08:40:13.789Z,2.88
2022-08-05T08:45:23.704Z,3.20
2022-08-05T08:46:48.193Z,3.22
2022-08-05T08:50:22.509Z,3.10
2022-08-05T08:53:19.189Z,3.15
2022-08-05T08:56:27.073Z,3.15
2022-08-05T08:59:33.417Z,2.75
2022-08-05T09:02:38.779Z,2.90
2022-08-05T09:06:08.901Z,3.05
2022-08-05T09:09:07.914Z,2.60
2022-08-05T09:12:20.807Z,2.83
2022-08-05T09:15:32.120Z,2.90
2022-08-05T09:18:43.845Z,3.00
2022-08-05T09:22:17.512Z,2.65
2022-08-05T09:25:24.275Z,2.40
2022-08-05T09:28:43.905Z,2.70
2022-08-05T09:32:42.978Z,2.70
2022-08-05T09:35:30.144Z,2.85
2022-08-05T09:38:34.286Z,2.55
2022-08-05T09:41:59.770Z,2.95
2022-08-05T09:46:04.821Z,2.90
2022-08-05T09:48:34.401Z,2.90
2022-08-05T09:51:39.877Z,2.70
2022-08-05T09:54:58.832Z,2.83
2022-08-05T09:58:12.740Z,2.78
2022-08-05T10:01:22.522Z,3.28
2022-08-05T10:04:39.671Z,2.90
2022-08-05T10:08:35.379Z,2.90
2022-08-05T10:11:18.099Z,3.00
2022-08-05T10:14:24.504Z,2.55
2022-08-05T10:17:37.921Z,3.00
2022-08-05T10:20:50.053Z,2.95
2022-08-05T10:23:59.502Z,3.40
2022-08-05T10:27:04.977Z,2.90
2022-08-05T10:31:19.958Z,2.83
2022-08-05T10:33:36.171Z,2.85
2022-08-05T10:36:41.863Z,2.53
2022-08-05T10:39:59.322Z,2.75
2022-08-05T10:43:36.470Z,2.70
2022-08-05T10:46:50.692Z,2.90
2022-08-05T10:50:20.568Z,2.92
2022-08-05T10:53:55.972Z,2.70
2022-08-05T10:57:02.523Z,2.58
2022-08-05T11:00:24.044Z,2.90
2022-08-05T11:03:29.234Z,2.90
2022-08-05T11:06:35.300Z,2.83
2022-08-05T11:09:46.591Z,3.00
2022-08-05T11:12:55.173Z,3.20
2022-08-05T11:16:23.238Z,3.40
2022-08-05T11:20:17.095Z,2.78
2022-08-05T11:24:02.752Z,3.00
2022-08-05T11:27:51.116Z,2.80
2022-08-05T11:30:58.217Z,2.85
2022-08-05T11:34:05.735Z,3.00
2022-08-05T11:38:29.840Z,3.17
2022-08-05T11:44:52.766Z,3.13
2022-08-05T11:47:57.931Z,2.83
2022-08-05T11:51:02.798Z,3.05
2022-08-05T11:54:07.849Z,2.83
2022-08-05T11:57:24.817Z,2.60
2022-08-05T12:00:31.221Z,2.70
2022-08-05T12:03:55.520Z,2.95
2022-08-05T12:07:00.913Z,2.72
2022-08-05T12:10:09.407Z,2.70
2022-08-05T12:13:27.855Z,2.60
2022-08-05T12:16:45.499Z,2.58
2022-08-05T12:20:26.718Z,2.40
2022-08-05T12:23:17.652Z,2.65
2022-08-05T12:26:21.561Z,2.38
2022-08-05T12:29:29.116Z,2.42
2022-08-05T12:32:50.683Z,2.60
2022-08-05T12:35:58.184Z,2.50
2022-08-05T12:39:05.517Z,2.50
2022-08-05T12:42:16.426Z,2.60
2022-08-05T12:45:22.141Z,2.50
2022-08-05T12:48:45.202Z,2.60
2022-08-05T12:52:13.049Z,2.60
2022-08-05T12:55:26.646Z,2.42
2022-08-05T12:58:49.932Z,2.70
2022-08-05T13:02:07.902Z,2.50
2022-08-05T13:05:14.453Z,2.33
2022-08-05T13:08:19.245Z,2.70
2022-08-05T13:12:02.943Z,2.83
2022-08-05T13:15:05.682Z,2.70
2022-08-05T13:18:12.228Z,2.60
2022-08-05T13:21:23.810Z,2.78
2022-08-05T13:24:51.256Z,2.40
2022-08-05T13:27:57.629Z,2.88
2022-08-05T13:31:03.337Z,2.80
2022-08-05T13:34:22.109Z,2.70
2022-08-05T13:37:34.411Z,2.50
2022-08-05T13:40:50.040Z,2.92
2022-08-05T13:43:56.634Z,2.65
2022-08-05T13:47:05.172Z,2.50
2022-08-05T13:50:16.646Z,2.30
2022-08-05T13:53:20.945Z,2.00
2022-08-05T13:56:25.576Z,2.10
2022-08-05T13:59:30.723Z,1.70
2022-08-05T14:02:35.200Z,1.65
2022-08-05T14:06:04.895Z,1.90
2022-08-05T14:09:08.381Z,1.65
2022-08-05T14:12:17.466Z,1.90
2022-08-05T14:16:08.191Z,1.80
2022-08-05T14:18:46.587Z,1.77
2022-08-05T14:22:08.526Z,1.83
2022-08-05T14:25:21.933Z,1.85
2022-08-05T14:28:28.497Z,1.83
2022-08-05T14:32:02.672Z,1.73
2022-08-05T14:34:57.729Z,1.85
2022-08-05T14:38:01.999Z,1.70
2022-08-05T14:41:07.468Z,1.50
2022-08-05T14:44:20.612Z,1.65
2022-08-05T14:48:03.210Z,1.70
2022-08-05T14:50:50.272Z,1.83
2022-08-05T14:54:26.390Z,1.90
2022-08-05T14:57:19.165Z,1.98
2022-08-05T15:00:27.756Z,1.80
2022-08-05T15:03:33.728Z,1.80
2022-08-05T15:06:38.548Z,2.00
2022-08-05T15:09:52.463Z,1.83
2022-08-05T15:13:03.923Z,1.80
2022-08-05T15:16:11.011Z,2.38
2022-08-05T15:19:23.855Z,2.10
2022-08-05T15:22:28.700Z,2.42
2022-08-05T15:25:51.966Z,3.75
2022-08-05T15:28:57.580Z,6.72
2022-08-05T15:32:03.372Z,9.98
2022-08-05T15:35:12.523Z,10.50
2022-08-05T15:38:35.350Z,7.90
2022-08-05T15:45:03.563Z,9.38
2022-08-05T15:48:10.564Z,8.43
2022-08-05T15:51:22.459Z,8.10
2022-08-05T15:54:46.517Z,8.68
2022-08-05T15:57:50.599Z,8.90
2022-08-05T16:01:04.434Z,9.10
2022-08-05T16:04:18.802Z,8.90
2022-08-05T16:07:23.057Z,9.57
2022-08-05T16:10:27.375Z,8.55
2022-08-05T16:13:34.133Z,8.57
2022-08-05T16:16:39.350Z,7.95
2022-08-05T16:20:03.489Z,6.13
2022-08-05T16:23:08.619Z,5.95
2022-08-05T16:26:13.306Z,5.38
2022-08-05T16:29:18.221Z,6.32
2022-08-05T16:32:29.350Z,6.13
2022-08-05T16:35:43.075Z,5.32
2022-08-05T16:38:54.827Z,6.30
2022-08-05T16:42:14.415Z,5.50
2022-08-05T16:46:07.489Z,5.40
2022-08-05T16:48:47.651Z,4.78
2022-08-05T16:51:56.945Z,4.07
2022-08-05T16:55:01.074Z,3.88
2022-08-05T16:58:08.627Z,3.72
2022-08-05T17:01:13.338Z,3.75
2022-08-05T17:04:18.768Z,4.28
2022-08-05T17:07:43.754Z,4.00
2022-08-05T17:10:47.145Z,3.25
2022-08-05T17:14:00.379Z,3.05
2022-08-05T17:17:15.037Z,3.03
2022-08-05T17:20:19.664Z,2.58
2022-08-05T17:24:03.623Z,2.88
2022-08-05T17:26:48.335Z,2.80
2022-08-05T17:29:59.648Z,2.55
2022-08-05T17:33:07.753Z,2.45
2022-08-05T17:36:33.722Z,2.60
2022-08-05T17:39:37.669Z,1.83
2022-08-05T17:42:50.768Z,2.20
2022-08-05T17:45:56.654Z,1.95
2022-08-05T17:49:00.838Z,1.70
2022-08-05T17:52:04.705Z,1.52
2022-08-05T17:55:11.790Z,2.08
2022-08-05T17:58:17.626Z,1.88
2022-08-05T18:01:49.380Z,1.92
2022-08-05T18:04:55.161Z,1.83
2022-08-05T18:07:59.257Z,1.60
2022-08-05T18:11:04.029Z,2.00
2022-08-05T18:14:13.584Z,1.83
2022-08-05T18:18:00.630Z,1.55
2022-08-05T18:20:48.839Z,1.70
2022-08-05T18:23:54.427Z,1.80
2022-08-05T18:26:58.846Z,1.40
2022-08-05T18:30:03.459Z,1.90
2022-08-05T18:33:08.608Z,1.70
2022-08-05T18:36:19.193Z,1.95
2022-08-05T18:40:34.344Z,2.00
2022-08-05T18:42:47.820Z,1.55
2022-08-05T18:45:52.018Z,1.80
2022-08-05T18:49:20.289Z,1.70
2022-08-05T18:52:35.689Z,1.90
2022-08-05T18:55:40.617Z,1.60
2022-08-05T18:58:44.645Z,1.70
2022-08-05T19:01:56.983Z,1.50
2022-08-05T19:06:06.354Z,1.60
2022-08-05T19:08:30.798Z,1.67
2022-08-05T19:11:58.654Z,1.70
2022-08-05T19:15:02.701Z,1.52
2022-08-05T19:18:09.314Z,1.55
2022-08-05T19:21:15.644Z,1.50
2022-08-05T19:24:34.390Z,1.33
2022-08-05T19:27:39.381Z,1.30
2022-08-05T19:30:48.798Z,1.30
2022-08-05T19:33:56.643Z,1.42
2022-08-05T19:37:01.261Z,1.60
2022-08-05T19:40:08.165Z,1.20
2022-08-05T19:44:03.849Z,1.38
2022-08-05T19:46:39.546Z,1.30
2022-08-05T19:49:46.094Z,1.48
2022-08-05T19:52:50.609Z,1.58
2022-08-05T19:56:15.367Z,1.52
2022-08-05T19:59:51.638Z,1.60
2022-08-05T20:02:43.203Z,1.73
2022-08-05T20:05:51.276Z,1.50
2022-08-05T20:08:56.013Z,1.60
2022-08-05T20:11:59.978Z,1.90
2022-08-05T20:15:08.735Z,1.70
2022-08-05T20:18:33.889Z,1.40
2022-08-05T20:21:38.341Z,1.52
2022-08-05T20:24:42.712Z,1.60
2022-08-05T20:27:47.967Z,1.75
2022-08-05T20:30:54.246Z,1.60
2022-08-05T20:33:58.258Z,1.70
2022-08-05T20:37:02.199Z,1.70
2022-08-05T20:40:09.049Z,1.80
2022-08-05T20:43:14.411Z,1.90
2022-08-05T20:46:25.215Z,2.25
2022-08-05T20:49:33.212Z,2.08
2022-08-05T20:52:43.905Z,1.88
2022-08-05T20:56:07.399Z,1.70
2022-08-05T20:59:19.205Z,1.70
2022-08-05T21:02:30.433Z,2.45
2022-08-05T21:05:53.697Z,1.90
2022-08-05T21:08:58.824Z,1.95
2022-08-05T21:12:10.553Z,2.00
2022-08-05T21:15:17.425Z,1.88
2022-08-05T21:18:21.565Z,1.80
2022-08-05T21:21:39.536Z,2.00
2022-08-05T21:24:51.577Z,2.03
2022-08-05T21:27:56.494Z,1.80
2022-08-05T21:31:01.550Z,1.70
2022-08-05T21:34:05.661Z,2.17
2022-08-05T21:37:11.274Z,1.60
2022-08-05T21:40:16.956Z,1.90
2022-08-05T21:43:24.586Z,1.85
2022-08-05T21:46:29.688Z,1.90
2022-08-05T21:50:00.300Z,1.90
2022-08-05T21:52:58.722Z,1.98
2022-08-05T21:56:16.950Z,2.00
2022-08-05T21:59:23.884Z,1.90
2022-08-05T22:02:29.407Z,1.70
2022-08-05T22:05:48.269Z,1.85
2022-08-05T22:08:53.398Z,2.38
2022-08-05T22:11:59.782Z,1.50
2022-08-05T22:15:10.251Z,1.83
2022-08-05T22:18:20.594Z,1.98
2022-08-05T22:21:29.850Z,1.90
2022-08-05T22:24:55.690Z,2.03
2022-08-05T22:28:08.892Z,2.10
2022-08-05T22:31:15.466Z,2.10
2022-08-05T22:34:25.603Z,2.28
2022-08-05T22:37:58.859Z,1.92
2022-08-05T22:40:57.418Z,1.85
2022-08-05T22:44:01.488Z,2.08
2022-08-05T22:47:06.522Z,2.03
2022-08-05T22:50:19.483Z,1.80
2022-08-05T22:53:25.836Z,2.00
2022-08-05T22:56:39.981Z,1.95
2022-08-05T22:59:51.902Z,2.05
2022-08-05T23:02:58.652Z,1.90
2022-08-05T23:06:02.595Z,2.22
2022-08-05T23:09:28.059Z,1.98
2022-08-05T23:12:32.612Z,2.40
2022-08-05T23:15:37.543Z,2.53
2022-08-05T23:18:43.675Z,2.13
2022-08-05T23:21:48.770Z,2.60
2022-08-05T23:24:53.619Z,2.25
2022-08-05T23:28:00.715Z,2.50
2022-08-05T23:31:16.542Z,2.70
2022-08-05T23:34:24.516Z,2.65
2022-08-05T23:37:34.309Z,2.50
2022-08-05T23:40:40.691Z,2.50
2022-08-05T23:44:06.385Z,2.70
2022-08-05T23:47:15.278Z,2.60
2022-08-05T23:50:20.287Z,2.60
2022-08-05T23:53:24.290Z,2.10
2022-08-05T23:56:32.304Z,1.80
